sensor_id;sensor_type;location;lat;lon;timestamp;pressure;altitude;pressure_sealevel;temperature;humidity
56182;BME280;51963;46.052;14.544;2023-03-03T00:01:22;98393.44;;;3.34;100.00
56182;BME280;51963;46.052;14.544;2023-03-03T00:03:53;98384.53;;;3.27;100.00
56182;BME280;51963;46.052;14.544;2023-03-03T00:06:19;98384.41;;;3.19;100.00
56182;BME280;51963;46.052;14.544;2023-03-03T00:08:46;98383.00;;;3.34;100.00
56182;BME280;51963;46.052;14.544;2023-03-03T00:11:12;98381.63;;;3.30;100.00
56182;BME280;51963;46.052;14.544;2023-03-03T00:13:45;98373.94;;;3.29;100.00
56182;BME280;51963;46.052;14.544;2023-03-03T00:16:27;98359.91;;;3.20;100.00
56182;BME280;51963;46.052;14.544;2023-03-03T00:18:55;98376.41;;;3.30;100.00
56182;BME280;51963;46.052;14.544;2023-03-03T00:21:25;98366.75;;;3.41;100.00
56182;BME280;51963;46.052;14.544;2023-03-03T00:24:16;98371.81;;;3.52;100.00
56182;BME280;51963;46.052;14.544;2023-03-03T00:26:55;98366.16;;;3.57;100.00
56182;BME280;51963;46.052;14.544;2023-03-03T00:29:35;98367.66;;;3.59;100.00
56182;BME280;51963;46.052;14.544;2023-03-03T00:34:43;98359.88;;;3.40;100.00
56182;BME280;51963;46.052;14.544;2023-03-03T00:37:22;98356.84;;;3.44;100.00
56182;BME280;51963;46.052;14.544;2023-03-03T00:39:50;98357.44;;;3.28;100.00
56182;BME280;51963;46.052;14.544;2023-03-03T00:42:17;98359.59;;;3.43;100.00
56182;BME280;51963;46.052;14.544;2023-03-03T00:47:36;98339.47;;;3.53;100.00
56182;BME280;51963;46.052;14.544;2023-03-03T00:52:40;98320.31;;;3.62;100.00
56182;BME280;51963;46.052;14.544;2023-03-03T00:55:10;98342.09;;;3.53;100.00
56182;BME280;51963;46.052;14.544;2023-03-03T00:57:35;98356.06;;;3.34;100.00
56182;BME280;51963;46.052;14.544;2023-03-03T01:00:03;98343.13;;;3.32;100.00
56182;BME280;51963;46.052;14.544;2023-03-03T01:02:30;98333.50;;;3.23;100.00
56182;BME280;51963;46.052;14.544;2023-03-03T01:04:56;98333.84;;;3.10;100.00
56182;BME280;51963;46.052;14.544;2023-03-03T01:07:22;98329.69;;;3.07;100.00
56182;BME280;51963;46.052;14.544;2023-03-03T01:09:48;98334.13;;;2.97;100.00
56182;BME280;51963;46.052;14.544;2023-03-03T01:12:14;98322.81;;;3.06;100.00
56182;BME280;51963;46.052;14.544;2023-03-03T01:14:40;98321.47;;;3.02;100.00
56182;BME280;51963;46.052;14.544;2023-03-03T01:17:06;98309.81;;;2.97;100.00
56182;BME280;51963;46.052;14.544;2023-03-03T01:19:33;98310.88;;;2.94;100.00
56182;BME280;51963;46.052;14.544;2023-03-03T01:21:59;98313.22;;;2.97;100.00
56182;BME280;51963;46.052;14.544;2023-03-03T01:24:25;98317.06;;;2.93;100.00
56182;BME280;51963;46.052;14.544;2023-03-03T01:26:50;98306.22;;;2.88;100.00
56182;BME280;51963;46.052;14.544;2023-03-03T01:29:16;98305.13;;;2.90;100.00
56182;BME280;51963;46.052;14.544;2023-03-03T01:31:42;98304.97;;;2.92;100.00
56182;BME280;51963;46.052;14.544;2023-03-03T01:34:07;98291.50;;;2.97;100.00
56182;BME280;51963;46.052;14.544;2023-03-03T01:36:33;98290.41;;;2.99;100.00
56182;BME280;51963;46.052;14.544;2023-03-03T01:38:59;98287.25;;;2.96;100.00
56182;BME280;51963;46.052;14.544;2023-03-03T01:41:26;98287.94;;;2.88;100.00
56182;BME280;51963;46.052;14.544;2023-03-03T01:43:54;98292.63;;;2.84;100.00
56182;BME280;51963;46.052;14.544;2023-03-03T01:48:55;98285.72;;;2.93;100.00
56182;BME280;51963;46.052;14.544;2023-03-03T01:51:37;98281.88;;;2.97;100.00
56182;BME280;51963;46.052;14.544;2023-03-03T01:54:16;98288.34;;;2.93;100.00
56182;BME280;51963;46.052;14.544;2023-03-03T01:56:43;98276.94;;;2.94;100.00
56182;BME280;51963;46.052;14.544;2023-03-03T01:59:14;98273.34;;;2.95;100.00
56182;BME280;51963;46.052;14.544;2023-03-03T02:01:41;98268.69;;;2.89;100.00
56182;BME280;51963;46.052;14.544;2023-03-03T02:04:07;98269.53;;;2.89;100.00
56182;BME280;51963;46.052;14.544;2023-03-03T02:06:36;98259.91;;;3.00;100.00
56182;BME280;51963;46.052;14.544;2023-03-03T02:09:09;98262.06;;;3.04;100.00
56182;BME280;51963;46.052;14.544;2023-03-03T02:11:41;98242.13;;;3.13;100.00
56182;BME280;51963;46.052;14.544;2023-03-03T02:14:09;98262.97;;;3.51;100.00
56182;BME280;51963;46.052;14.544;2023-03-03T02:16:39;98259.88;;;3.37;100.00
56182;BME280;51963;46.052;14.544;2023-03-03T02:19:20;98264.59;;;3.34;100.00
56182;BME280;51963;46.052;14.544;2023-03-03T02:21:48;98234.78;;;3.17;100.00
56182;BME280;51963;46.052;14.544;2023-03-03T02:24:58;98235.34;;;3.20;100.00
56182;BME280;51963;46.052;14.544;2023-03-03T02:27:06;98252.09;;;3.28;100.00
56182;BME280;51963;46.052;14.544;2023-03-03T02:29:32;98250.28;;;3.28;100.00
56182;BME280;51963;46.052;14.544;2023-03-03T02:31:58;98250.88;;;3.22;100.00
56182;BME280;51963;46.052;14.544;2023-03-03T02:34:23;98239.72;;;3.20;100.00
56182;BME280;51963;46.052;14.544;2023-03-03T02:36:51;98249.97;;;3.03;100.00
56182;BME280;51963;46.052;14.544;2023-03-03T02:39:18;98243.13;;;2.92;100.00
56182;BME280;51963;46.052;14.544;2023-03-03T02:42:19;98243.44;;;2.89;100.00
56182;BME280;51963;46.052;14.544;2023-03-03T02:44:51;98241.50;;;2.82;100.00
56182;BME280;51963;46.052;14.544;2023-03-03T02:47:17;98234.22;;;2.85;100.00
56182;BME280;51963;46.052;14.544;2023-03-03T02:49:42;98236.28;;;2.82;100.00
56182;BME280;51963;46.052;14.544;2023-03-03T02:52:10;98241.78;;;2.78;100.00
56182;BME280;51963;46.052;14.544;2023-03-03T02:54:39;98242.34;;;2.72;100.00
56182;BME280;51963;46.052;14.544;2023-03-03T02:57:06;98236.84;;;2.75;100.00
56182;BME280;51963;46.052;14.544;2023-03-03T02:59:36;98234.34;;;2.84;100.00
56182;BME280;51963;46.052;14.544;2023-03-03T03:02:09;98244.06;;;3.01;100.00
56182;BME280;51963;46.052;14.544;2023-03-03T03:04:35;98235.41;;;3.01;100.00
56182;BME280;51963;46.052;14.544;2023-03-03T03:07:01;98231.06;;;2.91;100.00
56182;BME280;51963;46.052;14.544;2023-03-03T03:09:30;98235.69;;;2.98;100.00
56182;BME280;51963;46.052;14.544;2023-03-03T03:11:56;98222.53;;;2.79;100.00
56182;BME280;51963;46.052;14.544;2023-03-03T03:14:24;98223.00;;;2.65;100.00
56182;BME280;51963;46.052;14.544;2023-03-03T03:16:52;98230.25;;;2.61;100.00
56182;BME280;51963;46.052;14.544;2023-03-03T03:19:18;98233.03;;;2.60;100.00
56182;BME280;51963;46.052;14.544;2023-03-03T03:21:45;98221.38;;;2.44;100.00
56182;BME280;51963;46.052;14.544;2023-03-03T03:24:11;98238.53;;;2.57;100.00
56182;BME280;51963;46.052;14.544;2023-03-03T03:26:41;98237.00;;;2.64;100.00
56182;BME280;51963;46.052;14.544;2023-03-03T03:29:07;98213.38;;;2.46;100.00
56182;BME280;51963;46.052;14.544;2023-03-03T03:31:33;98233.31;;;2.57;100.00
56182;BME280;51963;46.052;14.544;2023-03-03T03:34:01;98236.47;;;2.51;100.00
56182;BME280;51963;46.052;14.544;2023-03-03T03:36:28;98234.84;;;2.49;100.00
56182;BME280;51963;46.052;14.544;2023-03-03T03:38:54;98236.59;;;2.49;100.00
56182;BME280;51963;46.052;14.544;2023-03-03T03:41:21;98233.19;;;2.48;100.00
56182;BME280;51963;46.052;14.544;2023-03-03T03:43:46;98218.75;;;2.54;100.00
56182;BME280;51963;46.052;14.544;2023-03-03T03:46:13;98219.28;;;2.58;100.00
56182;BME280;51963;46.052;14.544;2023-03-03T03:48:39;98227.81;;;2.60;100.00
56182;BME280;51963;46.052;14.544;2023-03-03T03:51:06;98237.25;;;2.81;100.00
56182;BME280;51963;46.052;14.544;2023-03-03T03:53:33;98243.19;;;2.73;100.00
56182;BME280;51963;46.052;14.544;2023-03-03T03:55:59;98236.16;;;2.63;100.00
56182;BME280;51963;46.052;14.544;2023-03-03T03:58:25;98227.13;;;2.58;100.00
56182;BME280;51963;46.052;14.544;2023-03-03T04:01:04;98233.03;;;2.60;100.00
56182;BME280;51963;46.052;14.544;2023-03-03T04:03:31;98231.34;;;2.78;100.00
56182;BME280;51963;46.052;14.544;2023-03-03T04:05:56;98225.72;;;2.73;100.00
56182;BME280;51963;46.052;14.544;2023-03-03T04:08:22;98232.59;;;2.74;100.00
56182;BME280;51963;46.052;14.544;2023-03-03T04:10:48;98232.19;;;2.69;100.00
56182;BME280;51963;46.052;14.544;2023-03-03T04:13:15;98234.81;;;2.69;100.00
56182;BME280;51963;46.052;14.544;2023-03-03T04:15:40;98233.84;;;2.70;100.00
56182;BME280;51963;46.052;14.544;2023-03-03T04:18:06;98228.63;;;2.60;100.00
56182;BME280;51963;46.052;14.544;2023-03-03T04:20:32;98225.59;;;2.55;100.00
56182;BME280;51963;46.052;14.544;2023-03-03T04:22:58;98235.47;;;2.61;100.00
56182;BME280;51963;46.052;14.544;2023-03-03T04:25:25;98228.91;;;2.57;100.00
56182;BME280;51963;46.052;14.544;2023-03-03T04:27:52;98229.19;;;2.64;100.00
56182;BME280;51963;46.052;14.544;2023-03-03T04:30:20;98228.91;;;2.67;100.00
56182;BME280;51963;46.052;14.544;2023-03-03T04:32:48;98226.97;;;2.69;100.00
56182;BME280;51963;46.052;14.544;2023-03-03T04:35:18;98215.16;;;2.65;100.00
56182;BME280;51963;46.052;14.544;2023-03-03T04:37:49;98225.03;;;2.71;100.00
56182;BME280;51963;46.052;14.544;2023-03-03T04:40:18;98171.66;;;2.36;100.00
56182;BME280;51963;46.052;14.544;2023-03-03T04:42:46;98231.38;;;2.59;100.00
56182;BME280;51963;46.052;14.544;2023-03-03T04:45:12;98225.47;;;2.57;100.00
56182;BME280;51963;46.052;14.544;2023-03-03T04:47:39;98217.94;;;2.54;100.00
56182;BME280;51963;46.052;14.544;2023-03-03T04:50:06;98226.44;;;2.56;100.00
56182;BME280;51963;46.052;14.544;2023-03-03T04:52:32;98230.69;;;2.57;100.00
56182;BME280;51963;46.052;14.544;2023-03-03T04:54:58;98232.47;;;2.66;100.00
56182;BME280;51963;46.052;14.544;2023-03-03T04:57:25;98218.41;;;2.87;100.00
56182;BME280;51963;46.052;14.544;2023-03-03T04:59:51;98230.44;;;3.07;100.00
56182;BME280;51963;46.052;14.544;2023-03-03T05:02:20;98227.53;;;3.11;100.00
56182;BME280;51963;46.052;14.544;2023-03-03T05:04:47;98226.72;;;3.10;100.00
56182;BME280;51963;46.052;14.544;2023-03-03T05:07:12;98209.81;;;3.04;100.00
56182;BME280;51963;46.052;14.544;2023-03-03T05:09:38;98225.00;;;2.91;100.00
56182;BME280;51963;46.052;14.544;2023-03-03T05:12:04;98211.56;;;2.76;100.00
56182;BME280;51963;46.052;14.544;2023-03-03T05:14:30;98215.16;;;2.75;100.00
56182;BME280;51963;46.052;14.544;2023-03-03T05:16:55;98218.44;;;2.67;100.00
56182;BME280;51963;46.052;14.544;2023-03-03T05:19:21;98224.34;;;2.69;100.00
56182;BME280;51963;46.052;14.544;2023-03-03T05:21:47;98222.88;;;2.67;100.00
56182;BME280;51963;46.052;14.544;2023-03-03T05:24:13;98224.38;;;2.59;100.00
56182;BME280;51963;46.052;14.544;2023-03-03T05:26:40;98219.28;;;2.58;100.00
56182;BME280;51963;46.052;14.544;2023-03-03T05:29:06;98220.94;;;2.59;100.00
56182;BME280;51963;46.052;14.544;2023-03-03T05:31:32;98224.38;;;2.59;100.00
56182;BME280;51963;46.052;14.544;2023-03-03T05:33:58;98194.00;;;2.58;100.00
56182;BME280;51963;46.052;14.544;2023-03-03T05:36:24;98221.13;;;2.95;100.00
56182;BME280;51963;46.052;14.544;2023-03-03T05:38:50;98228.09;;;3.04;100.00
56182;BME280;51963;46.052;14.544;2023-03-03T05:41:16;98222.19;;;3.12;100.00
56182;BME280;51963;46.052;14.544;2023-03-03T05:43:42;98219.91;;;3.27;100.00
56182;BME280;51963;46.052;14.544;2023-03-03T05:46:08;98224.06;;;3.48;100.00
56182;BME280;51963;46.052;14.544;2023-03-03T05:48:34;98231.38;;;3.44;100.00
56182;BME280;51963;46.052;14.544;2023-03-03T05:51:00;98230.69;;;3.14;100.00
56182;BME280;51963;46.052;14.544;2023-03-03T05:53:26;98236.22;;;3.01;100.00
56182;BME280;51963;46.052;14.544;2023-03-03T05:55:53;98243.88;;;3.13;100.00
56182;BME280;51963;46.052;14.544;2023-03-03T05:58:19;98243.53;;;2.98;100.00
56182;BME280;51963;46.052;14.544;2023-03-03T06:00:45;98244.22;;;3.00;100.00
56182;BME280;51963;46.052;14.544;2023-03-03T06:03:11;98245.47;;;2.96;100.00
56182;BME280;51963;46.052;14.544;2023-03-03T06:05:37;98233.50;;;2.93;100.00
56182;BME280;51963;46.052;14.544;2023-03-03T06:08:03;98256.47;;;3.27;100.00
56182;BME280;51963;46.052;14.544;2023-03-03T06:10:29;98260.09;;;3.54;100.00
56182;BME280;51963;46.052;14.544;2023-03-03T06:12:58;98260.91;;;3.55;100.00
56182;BME280;51963;46.052;14.544;2023-03-03T06:15:24;98258.97;;;3.29;100.00
56182;BME280;51963;46.052;14.544;2023-03-03T06:17:50;98256.88;;;3.32;100.00
56182;BME280;51963;46.052;14.544;2023-03-03T06:20:16;98256.66;;;3.16;100.00
56182;BME280;51963;46.052;14.544;2023-03-03T06:22:42;98260.06;;;3.26;100.00
56182;BME280;51963;46.052;14.544;2023-03-03T06:25:08;98264.09;;;3.11;100.00
56182;BME280;51963;46.052;14.544;2023-03-03T06:27:33;98268.16;;;3.33;100.00
56182;BME280;51963;46.052;14.544;2023-03-03T06:29:59;98280.22;;;3.44;100.00
56182;BME280;51963;46.052;14.544;2023-03-03T06:32:25;98276.81;;;3.33;100.00
56182;BME280;51963;46.052;14.544;2023-03-03T06:34:51;98267.69;;;3.47;100.00
56182;BME280;51963;46.052;14.544;2023-03-03T06:37:17;98279.31;;;3.25;100.00
56182;BME280;51963;46.052;14.544;2023-03-03T06:39:42;98282.50;;;3.19;100.00
56182;BME280;51963;46.052;14.544;2023-03-03T06:42:13;98282.91;;;3.24;100.00
56182;BME280;51963;46.052;14.544;2023-03-03T06:44:38;98292.38;;;3.25;100.00
56182;BME280;51963;46.052;14.544;2023-03-03T06:47:05;98288.69;;;3.28;100.00
56182;BME280;51963;46.052;14.544;2023-03-03T06:49:31;98268.81;;;3.07;100.00
56182;BME280;51963;46.052;14.544;2023-03-03T06:51:58;98297.50;;;3.17;100.00
56182;BME280;51963;46.052;14.544;2023-03-03T06:54:27;98240.13;;;2.87;100.00
56182;BME280;51963;46.052;14.544;2023-03-03T06:56:57;98292.66;;;3.22;100.00
56182;BME280;51963;46.052;14.544;2023-03-03T06:59:26;98302.31;;;3.21;100.00
56182;BME280;51963;46.052;14.544;2023-03-03T07:01:52;98299.66;;;3.31;100.00
56182;BME280;51963;46.052;14.544;2023-03-03T07:06:44;98305.84;;;3.30;100.00
56182;BME280;51963;46.052;14.544;2023-03-03T07:09:25;98305.97;;;3.38;100.00
56182;BME280;51963;46.052;14.544;2023-03-03T07:11:53;98311.56;;;3.44;100.00
56182;BME280;51963;46.052;14.544;2023-03-03T07:14:24;98296.63;;;3.36;100.00
56182;BME280;51963;46.052;14.544;2023-03-03T07:17:00;98307.03;;;3.46;100.00
56182;BME280;51963;46.052;14.544;2023-03-03T07:19:34;98300.34;;;3.33;100.00
56182;BME280;51963;46.052;14.544;2023-03-03T07:24:43;98322.75;;;3.36;100.00
56182;BME280;51963;46.052;14.544;2023-03-03T07:29:50;98323.56;;;3.36;100.00
56182;BME280;51963;46.052;14.544;2023-03-03T07:32:40;98329.66;;;3.27;100.00
56182;BME280;51963;46.052;14.544;2023-03-03T07:37:54;98326.22;;;3.64;100.00
56182;BME280;51963;46.052;14.544;2023-03-03T07:42:47;98328.63;;;3.48;100.00
56182;BME280;51963;46.052;14.544;2023-03-03T07:45:27;98331.22;;;3.58;100.00
56182;BME280;51963;46.052;14.544;2023-03-03T07:48:24;98331.84;;;3.97;100.00
56182;BME280;51963;46.052;14.544;2023-03-03T07:50:51;98332.59;;;4.08;100.00
56182;BME280;51963;46.052;14.544;2023-03-03T07:53:28;98329.78;;;4.19;100.00
56182;BME280;51963;46.052;14.544;2023-03-03T07:55:59;98335.50;;;4.05;100.00
56182;BME280;51963;46.052;14.544;2023-03-03T07:58:37;98283.22;;;3.77;100.00
56182;BME280;51963;46.052;14.544;2023-03-03T08:01:31;98330.94;;;3.89;100.00
56182;BME280;51963;46.052;14.544;2023-03-03T08:03:59;98332.88;;;3.87;100.00
56182;BME280;51963;46.052;14.544;2023-03-03T08:07:08;98329.28;;;3.88;100.00
56182;BME280;51963;46.052;14.544;2023-03-03T08:09:50;98311.00;;;4.06;100.00
56182;BME280;51963;46.052;14.544;2023-03-03T08:12:39;98333.03;;;4.31;100.00
56182;BME280;51963;46.052;14.544;2023-03-03T08:17:39;98333.38;;;4.18;100.00
56182;BME280;51963;46.052;14.544;2023-03-03T08:20:43;98337.25;;;4.14;100.00
56182;BME280;51963;46.052;14.544;2023-03-03T08:23:10;98325.63;;;3.99;100.00
56182;BME280;51963;46.052;14.544;2023-03-03T08:25:37;98342.66;;;4.13;100.00
56182;BME280;51963;46.052;14.544;2023-03-03T08:28:03;98343.94;;;3.99;100.00
56182;BME280;51963;46.052;14.544;2023-03-03T08:30:28;98343.06;;;4.08;100.00
56182;BME280;51963;46.052;14.544;2023-03-03T08:32:56;98352.19;;;4.04;100.00
56182;BME280;51963;46.052;14.544;2023-03-03T08:35:22;98351.69;;;4.18;100.00
56182;BME280;51963;46.052;14.544;2023-03-03T08:37:48;98348.09;;;4.19;100.00
56182;BME280;51963;46.052;14.544;2023-03-03T08:40:14;98347.66;;;4.24;100.00
56182;BME280;51963;46.052;14.544;2023-03-03T08:42:39;98352.25;;;4.40;100.00
56182;BME280;51963;46.052;14.544;2023-03-03T08:45:05;98344.84;;;4.72;100.00
56182;BME280;51963;46.052;14.544;2023-03-03T08:47:31;98339.06;;;4.68;100.00
56182;BME280;51963;46.052;14.544;2023-03-03T08:50:00;98347.09;;;4.66;100.00
56182;BME280;51963;46.052;14.544;2023-03-03T08:52:26;98348.94;;;4.74;100.00
56182;BME280;51963;46.052;14.544;2023-03-03T08:54:52;98345.53;;;5.00;100.00
56182;BME280;51963;46.052;14.544;2023-03-03T08:57:18;98342.88;;;4.92;100.00
56182;BME280;51963;46.052;14.544;2023-03-03T08:59:44;98337.25;;;4.87;100.00
56182;BME280;51963;46.052;14.544;2023-03-03T09:02:12;98345.00;;;5.14;100.00
56182;BME280;51963;46.052;14.544;2023-03-03T09:04:38;98354.50;;;5.16;100.00
56182;BME280;51963;46.052;14.544;2023-03-03T09:07:05;98345.59;;;5.53;100.00
56182;BME280;51963;46.052;14.544;2023-03-03T09:09:31;98349.13;;;5.17;100.00
56182;BME280;51963;46.052;14.544;2023-03-03T09:11:58;98357.63;;;5.37;100.00
56182;BME280;51963;46.052;14.544;2023-03-03T09:14:28;98359.31;;;5.81;100.00
56182;BME280;51963;46.052;14.544;2023-03-03T09:16:55;98352.56;;;6.13;100.00
56182;BME280;51963;46.052;14.544;2023-03-03T09:21:51;98374.72;;;6.11;100.00
56182;BME280;51963;46.052;14.544;2023-03-03T09:24:37;98372.03;;;5.68;100.00
56182;BME280;51963;46.052;14.544;2023-03-03T09:27:30;98370.47;;;6.10;100.00
56182;BME280;51963;46.052;14.544;2023-03-03T09:32:51;98337.97;;;6.11;100.00
56182;BME280;51963;46.052;14.544;2023-03-03T09:38:01;98374.69;;;6.70;100.00
56182;BME280;51963;46.052;14.544;2023-03-03T09:54:31;98387.34;;;6.75;100.00
56182;BME280;51963;46.052;14.544;2023-03-03T09:57:09;98395.72;;;6.79;100.00
56182;BME280;51963;46.052;14.544;2023-03-03T10:00:13;98383.88;;;6.66;100.00
56182;BME280;51963;46.052;14.544;2023-03-03T10:02:48;98382.59;;;7.03;100.00
56182;BME280;51963;46.052;14.544;2023-03-03T10:07:51;98383.97;;;7.81;100.00
56182;BME280;51963;46.052;14.544;2023-03-03T10:15:51;98380.94;;;9.10;98.73
56182;BME280;51963;46.052;14.544;2023-03-03T10:21:50;98383.66;;;8.24;100.00
56182;BME280;51963;46.052;14.544;2023-03-03T10:43:46;98383.03;;;7.65;100.00
56182;BME280;51963;46.052;14.544;2023-03-03T11:00:33;98390.47;;;6.95;100.00
56182;BME280;51963;46.052;14.544;2023-03-03T11:06:32;98381.09;;;6.59;100.00
56182;BME280;51963;46.052;14.544;2023-03-03T11:16:55;98384.72;;;6.07;100.00
56182;BME280;51963;46.052;14.544;2023-03-03T11:30:48;98373.69;;;6.71;100.00
56182;BME280;51963;46.052;14.544;2023-03-03T11:41:28;98371.50;;;7.66;100.00
56182;BME280;51963;46.052;14.544;2023-03-03T11:44:02;98359.84;;;8.08;100.00
56182;BME280;51963;46.052;14.544;2023-03-03T11:46:40;98363.38;;;7.84;100.00
56182;BME280;51963;46.052;14.544;2023-03-03T11:49:18;98368.91;;;7.58;100.00
56182;BME280;51963;46.052;14.544;2023-03-03T11:57:18;98356.25;;;7.37;100.00
56182;BME280;51963;46.052;14.544;2023-03-03T12:08:12;98363.69;;;6.75;100.00
56182;BME280;51963;46.052;14.544;2023-03-03T12:11:03;98359.88;;;6.53;100.00
56182;BME280;51963;46.052;14.544;2023-03-03T12:16:39;98361.69;;;6.44;100.00
56182;BME280;51963;46.052;14.544;2023-03-03T12:19:33;98355.78;;;6.50;100.00
56182;BME280;51963;46.052;14.544;2023-03-03T12:22:15;98350.84;;;6.39;100.00
56182;BME280;51963;46.052;14.544;2023-03-03T12:28:08;98349.25;;;6.63;100.00
56182;BME280;51963;46.052;14.544;2023-03-03T12:39:06;98337.41;;;7.08;100.00
56182;BME280;51963;46.052;14.544;2023-03-03T12:41:52;98340.84;;;7.00;100.00
56182;BME280;51963;46.052;14.544;2023-03-03T12:44:35;98339.81;;;7.34;100.00
56182;BME280;51963;46.052;14.544;2023-03-03T12:47:15;98331.81;;;7.19;100.00
56182;BME280;51963;46.052;14.544;2023-03-03T12:50:02;98323.63;;;6.89;100.00
56182;BME280;51963;46.052;14.544;2023-03-03T12:52:53;98337.09;;;6.95;100.00
56182;BME280;51963;46.052;14.544;2023-03-03T13:11:30;98341.19;;;6.56;100.00
56182;BME280;51963;46.052;14.544;2023-03-03T13:14:04;98336.41;;;6.35;100.00
56182;BME280;51963;46.052;14.544;2023-03-03T13:16:47;98328.56;;;6.59;100.00
56182;BME280;51963;46.052;14.544;2023-03-03T13:19:19;98331.66;;;6.80;100.00
56182;BME280;51963;46.052;14.544;2023-03-03T13:21:51;98328.47;;;7.42;100.00
56182;BME280;51963;46.052;14.544;2023-03-03T13:24:32;98331.31;;;7.24;100.00
56182;BME280;51963;46.052;14.544;2023-03-03T13:27:19;98325.59;;;7.12;100.00
56182;BME280;51963;46.052;14.544;2023-03-03T13:35:31;98331.50;;;6.56;100.00
56182;BME280;51963;46.052;14.544;2023-03-03T13:38:01;98326.59;;;6.62;100.00
56182;BME280;51963;46.052;14.544;2023-03-03T13:40:50;98309.63;;;6.39;100.00
56182;BME280;51963;46.052;14.544;2023-03-03T13:43:24;98325.41;;;6.48;100.00
56182;BME280;51963;46.052;14.544;2023-03-03T13:51:35;98306.16;;;6.14;100.00
56182;BME280;51963;46.052;14.544;2023-03-03T13:56:39;98307.16;;;6.13;100.00
56182;BME280;51963;46.052;14.544;2023-03-03T13:59:15;98324.41;;;6.32;100.00
56182;BME280;51963;46.052;14.544;2023-03-03T14:05:01;98319.97;;;6.24;100.00
56182;BME280;51963;46.052;14.544;2023-03-03T14:07:36;98328.22;;;6.46;100.00
56182;BME280;51963;46.052;14.544;2023-03-03T14:10:16;98321.00;;;6.48;100.00
56182;BME280;51963;46.052;14.544;2023-03-03T14:13:02;98320.66;;;6.43;100.00
56182;BME280;51963;46.052;14.544;2023-03-03T14:15:55;98314.75;;;6.57;100.00
56182;BME280;51963;46.052;14.544;2023-03-03T14:21:21;98308.84;;;6.55;100.00
56182;BME280;51963;46.052;14.544;2023-03-03T14:24:06;98315.06;;;6.46;100.00
56182;BME280;51963;46.052;14.544;2023-03-03T14:26:50;98310.47;;;6.48;100.00
56182;BME280;51963;46.052;14.544;2023-03-03T14:31:51;98269.41;;;6.14;100.00
56182;BME280;51963;46.052;14.544;2023-03-03T14:36:58;98309.50;;;6.49;100.00
56182;BME280;51963;46.052;14.544;2023-03-03T14:39:32;98306.84;;;6.33;100.00
56182;BME280;51963;46.052;14.544;2023-03-03T14:41:59;98300.41;;;6.19;100.00
56182;BME280;51963;46.052;14.544;2023-03-03T14:49:37;98322.63;;;6.49;100.00
56182;BME280;51963;46.052;14.544;2023-03-03T14:52:31;98331.50;;;6.73;100.00
56182;BME280;51963;46.052;14.544;2023-03-03T14:54:59;98332.81;;;6.60;100.00
56182;BME280;51963;46.052;14.544;2023-03-03T14:57:37;98329.19;;;6.37;100.00
56182;BME280;51963;46.052;14.544;2023-03-03T15:03:29;98327.69;;;6.34;100.00
56182;BME280;51963;46.052;14.544;2023-03-03T15:05:35;98310.91;;;6.19;100.00
56182;BME280;51963;46.052;14.544;2023-03-03T15:10:38;98325.50;;;6.05;100.00
56182;BME280;51963;46.052;14.544;2023-03-03T15:18:27;98323.56;;;6.23;100.00
56182;BME280;51963;46.052;14.544;2023-03-03T15:21:13;98319.31;;;6.30;100.00
56182;BME280;51963;46.052;14.544;2023-03-03T15:24:02;98321.28;;;6.28;100.00
56182;BME280;51963;46.052;14.544;2023-03-03T15:26:47;98321.63;;;6.34;100.00
56182;BME280;51963;46.052;14.544;2023-03-03T15:29:31;98316.38;;;6.42;100.00
56182;BME280;51963;46.052;14.544;2023-03-03T15:34:43;98292.44;;;6.70;100.00
56182;BME280;51963;46.052;14.544;2023-03-03T15:40:16;98313.53;;;7.26;100.00
56182;BME280;51963;46.052;14.544;2023-03-03T15:45:45;98314.41;;;8.06;100.00
56182;BME280;51963;46.052;14.544;2023-03-03T15:51:53;98312.94;;;8.12;100.00
56182;BME280;51963;46.052;14.544;2023-03-03T15:57:00;98325.28;;;6.74;100.00
56182;BME280;51963;46.052;14.544;2023-03-03T16:02:20;98322.59;;;6.33;100.00
56182;BME280;51963;46.052;14.544;2023-03-03T16:05:12;98321.94;;;6.22;100.00
56182;BME280;51963;46.052;14.544;2023-03-03T16:08:04;98318.63;;;6.12;100.00
56182;BME280;51963;46.052;14.544;2023-03-03T16:21:43;98294.69;;;5.37;100.00
56182;BME280;51963;46.052;14.544;2023-03-03T16:27:15;98313.50;;;5.06;100.00
56182;BME280;51963;46.052;14.544;2023-03-03T16:35:54;98318.13;;;4.68;100.00
56182;BME280;51963;46.052;14.544;2023-03-03T16:38:40;98317.97;;;4.51;100.00
56182;BME280;51963;46.052;14.544;2023-03-03T16:41:14;98329.44;;;4.50;100.00
56182;BME280;51963;46.052;14.544;2023-03-03T16:46:34;98316.25;;;4.24;100.00
56182;BME280;51963;46.052;14.544;2023-03-03T16:52:11;98311.75;;;3.98;100.00
56182;BME280;51963;46.052;14.544;2023-03-03T17:02:45;98339.50;;;3.81;100.00
56182;BME280;51963;46.052;14.544;2023-03-03T17:05:43;98343.84;;;3.62;100.00
56182;BME280;51963;46.052;14.544;2023-03-03T17:11:10;98337.88;;;3.32;100.00
56182;BME280;51963;46.052;14.544;2023-03-03T17:27:30;98358.59;;;3.06;100.00
56182;BME280;51963;46.052;14.544;2023-03-03T17:33:01;98366.28;;;2.88;100.00
56182;BME280;51963;46.052;14.544;2023-03-03T17:35:49;98367.97;;;2.79;100.00
56182;BME280;51963;46.052;14.544;2023-03-03T17:38:44;98371.94;;;2.73;100.00
56182;BME280;51963;46.052;14.544;2023-03-03T17:46:35;98371.91;;;2.63;100.00
56182;BME280;51963;46.052;14.544;2023-03-03T17:58:22;98389.63;;;2.40;100.00
56182;BME280;51963;46.052;14.544;2023-03-03T18:02:02;98386.44;;;2.37;100.00
56182;BME280;51963;46.052;14.544;2023-03-03T18:18:01;98389.19;;;2.35;100.00
56182;BME280;51963;46.052;14.544;2023-03-03T18:23:31;98400.44;;;2.35;100.00
56182;BME280;51963;46.052;14.544;2023-03-03T18:26:02;98392.75;;;2.34;100.00